createdAt,value
2023-06-19T00:00:14.816Z,97429.91
2023-06-19T00:02:43.642Z,97418.69
2023-06-19T00:05:11.475Z,97426.28
2023-06-19T00:07:39.282Z,97420.00
2023-06-19T00:10:07.350Z,97420.00
2023-06-19T00:12:35.201Z,97401.44
2023-06-19T00:15:04.055Z,97409.03
2023-06-19T00:17:31.879Z,97408.25
2023-06-19T00:19:59.602Z,97402.78
2023-06-19T00:22:27.468Z,97408.50
2023-06-19T00:24:55.268Z,97401.69
2023-06-19T00:27:23.379Z,97398.03
2023-06-19T00:29:54.196Z,97393.59
2023-06-19T00:32:22.034Z,97395.44
2023-06-19T00:34:49.857Z,97397.00
2023-06-19T00:37:17.652Z,97396.50
2023-06-19T00:39:45.363Z,97406.16
2023-06-19T00:42:13.231Z,97396.50
2023-06-19T00:44:41.304Z,97393.91
2023-06-19T00:47:09.091Z,97394.94
2023-06-19T00:49:36.856Z,97395.44
2023-06-19T00:52:05.045Z,97402.00
2023-06-19T00:54:32.850Z,97398.63
2023-06-19T00:57:02.173Z,97392.84
2023-06-19T00:59:30.697Z,97387.09
2023-06-19T01:01:58.691Z,97394.66
2023-06-19T01:04:26.789Z,97390.50
2023-06-19T01:06:59.103Z,97386.31
2023-06-19T01:09:34.904Z,97392.34
2023-06-19T01:12:09.707Z,97389.97
2023-06-19T01:14:40.689Z,97385.28
2023-06-19T01:17:08.562Z,97393.38
2023-06-19T01:19:36.403Z,97396.25
2023-06-19T01:22:05.876Z,97383.94
2023-06-19T01:24:33.644Z,97384.22
2023-06-19T01:27:02.935Z,97389.72
2023-06-19T01:29:30.688Z,97384.47
2023-06-19T01:32:09.925Z,97383.50
2023-06-19T01:34:40.012Z,97377.72
2023-06-19T01:37:08.866Z,97377.94
2023-06-19T01:39:38.200Z,97376.94
2023-06-19T01:42:06.056Z,97385.00
2023-06-19T01:44:33.900Z,97378.22
2023-06-19T01:47:07.777Z,97385.31
2023-06-19T01:49:35.903Z,97388.44
2023-06-19T01:52:05.486Z,97378.53
2023-06-19T01:54:33.289Z,97382.75
2023-06-19T01:57:01.560Z,97390.28
2023-06-19T01:59:29.321Z,97389.75
2023-06-19T02:01:57.144Z,97394.97
2023-06-19T02:04:24.914Z,97396.53
2023-06-19T02:06:52.745Z,97397.59
2023-06-19T02:09:20.464Z,97401.25
2023-06-19T02:11:48.306Z,97408.53
2023-06-19T02:14:16.070Z,97406.47
2023-06-19T02:16:44.764Z,97406.72
2023-06-19T02:19:12.709Z,97410.84
2023-06-19T02:21:40.524Z,97418.19
2023-06-19T02:24:08.447Z,97408.28
2023-06-19T02:26:36.249Z,97404.91
2023-06-19T02:29:04.007Z,97405.69
2023-06-19T02:31:32.329Z,97406.22
2023-06-19T02:34:00.135Z,97405.44
2023-06-19T02:36:27.971Z,97416.34
2023-06-19T02:38:55.737Z,97414.25
2023-06-19T02:41:23.900Z,97422.59
2023-06-19T02:43:51.715Z,97422.06
2023-06-19T02:46:20.667Z,97421.00
2023-06-19T02:48:48.518Z,97431.47
2023-06-19T02:51:17.051Z,97435.69
2023-06-19T02:53:46.199Z,97437.19
2023-06-19T02:56:13.948Z,97447.38
2023-06-19T02:58:42.387Z,97444.50
2023-06-19T03:01:10.287Z,97448.19
2023-06-19T03:03:38.940Z,97453.63
2023-06-19T03:06:07.544Z,97448.47
2023-06-19T03:08:36.253Z,97448.44
2023-06-19T03:11:06.820Z,97445.59
2023-06-19T03:13:53.889Z,97440.34
2023-06-19T03:16:21.957Z,97441.13
2023-06-19T03:18:53.193Z,97441.84
2023-06-19T03:21:23.780Z,97440.09
2023-06-19T03:23:54.335Z,97440.28
2023-06-19T03:26:25.988Z,97436.13
2023-06-19T03:28:55.479Z,97435.34
2023-06-19T03:31:25.291Z,97441.06
2023-06-19T03:33:53.531Z,97435.84
2023-06-19T03:36:24.075Z,97441.09
2023-06-19T03:38:55.476Z,97436.91
2023-06-19T03:41:28.671Z,97438.22
2023-06-19T03:43:58.588Z,97435.63
2023-06-19T03:46:26.809Z,97433.03
2023-06-19T03:48:55.139Z,97439.78
2023-06-19T03:51:22.904Z,97437.75
2023-06-19T03:53:52.170Z,97440.38
2023-06-19T03:56:20.519Z,97438.03
2023-06-19T03:58:49.642Z,97435.66
2023-06-19T04:01:17.452Z,97438.56
2023-06-19T04:03:45.297Z,97434.66
2023-06-19T04:06:13.112Z,97440.91
2023-06-19T04:08:41.556Z,97438.06
2023-06-19T04:11:13.660Z,97439.84
2023-06-19T04:13:41.667Z,97444.56
2023-06-19T04:16:09.806Z,97436.97
2023-06-19T04:18:38.059Z,97439.34
2023-06-19T04:21:06.018Z,97444.56
2023-06-19T04:23:34.195Z,97439.59
2023-06-19T04:26:01.998Z,97435.94
2023-06-19T04:28:29.902Z,97428.38
2023-06-19T04:31:01.572Z,97437.75
2023-06-19T04:33:30.287Z,97432.03
2023-06-19T04:35:58.106Z,97424.72
2023-06-19T04:38:25.904Z,97431.25
2023-06-19T04:40:55.065Z,97431.75
2023-06-19T04:43:25.754Z,97426.28
2023-06-19T04:45:53.820Z,97425.22
2023-06-19T04:48:25.997Z,97428.09
2023-06-19T04:50:54.188Z,97427.03
2023-06-19T04:53:22.494Z,97436.97
2023-06-19T04:55:50.906Z,97421.31
2023-06-19T04:58:18.773Z,97429.91
2023-06-19T05:00:52.226Z,97434.84
2023-06-19T05:03:20.546Z,97425.66
2023-06-19T05:05:48.376Z,97427.50
2023-06-19T05:08:16.189Z,97426.91
2023-06-19T05:10:46.474Z,97429.22
2023-06-19T05:13:15.202Z,97424.78
2023-06-19T05:15:44.031Z,97427.91
2023-06-19T05:18:11.915Z,97428.63
2023-06-19T05:20:39.682Z,97425.47
2023-06-19T05:23:08.786Z,97438.53
2023-06-19T05:25:36.529Z,97428.25
2023-06-19T05:28:06.157Z,97431.94
2023-06-19T05:30:34.345Z,97431.84
2023-06-19T05:33:02.333Z,97433.69
2023-06-19T05:35:31.490Z,97438.97
2023-06-19T05:37:59.291Z,97435.88
2023-06-19T05:40:27.676Z,97444.47
2023-06-19T05:42:56.860Z,97448.63
2023-06-19T05:45:24.651Z,97442.91
2023-06-19T05:47:52.410Z,97442.94
2023-06-19T05:50:20.169Z,97452.63
2023-06-19T05:52:49.008Z,97450.75
2023-06-19T05:55:16.840Z,97448.91
2023-06-19T05:57:44.677Z,97454.91
2023-06-19T06:00:15.443Z,97453.25
2023-06-19T06:02:43.354Z,97453.81
2023-06-19T06:05:12.914Z,97455.19
2023-06-19T06:07:41.616Z,97449.56
2023-06-19T06:10:10.380Z,97454.38
2023-06-19T06:12:38.401Z,97449.78
2023-06-19T06:15:08.243Z,97453.19
2023-06-19T06:17:36.634Z,97455.53
2023-06-19T06:20:13.895Z,97453.38
2023-06-19T06:22:42.318Z,97461.19
2023-06-19T06:25:13.272Z,97465.34
2023-06-19T06:27:42.304Z,97458.41
2023-06-19T06:30:12.887Z,97465.81
2023-06-19T06:32:40.828Z,97458.66
2023-06-19T06:35:08.745Z,97455.16
2023-06-19T06:37:36.636Z,97467.06
2023-06-19T06:40:10.514Z,97453.44
2023-06-19T06:42:39.416Z,97461.38
2023-06-19T06:45:09.419Z,97454.50
2023-06-19T06:47:37.326Z,97457.28
2023-06-19T06:50:05.542Z,97452.59
2023-06-19T06:52:33.525Z,97458.13
2023-06-19T06:55:01.293Z,97463.72
2023-06-19T06:57:29.236Z,97460.66
2023-06-19T06:59:56.942Z,97451.88
2023-06-19T07:02:24.871Z,97452.38
2023-06-19T07:04:53.413Z,97450.22
2023-06-19T07:07:22.044Z,97451.28
2023-06-19T07:09:49.845Z,97456.84
2023-06-19T07:12:17.620Z,97451.00
2023-06-19T07:14:46.436Z,97457.63
2023-06-19T07:17:14.302Z,97462.88
2023-06-19T07:19:42.471Z,97459.84
2023-06-19T07:22:10.220Z,97464.94
2023-06-19T07:24:38.246Z,97460.13
2023-06-19T07:27:06.466Z,97451.66
2023-06-19T07:29:34.274Z,97460.50
2023-06-19T07:32:05.154Z,97452.41
2023-06-19T07:34:34.965Z,97455.41
2023-06-19T07:37:03.895Z,97453.69
2023-06-19T07:39:32.317Z,97451.66
2023-06-19T07:42:01.192Z,97453.81
2023-06-19T07:44:29.134Z,97450.16
2023-06-19T07:46:56.986Z,97447.13
2023-06-19T07:49:24.855Z,97444.09
2023-06-19T07:51:52.577Z,97441.72
2023-06-19T07:54:20.437Z,97452.38
2023-06-19T07:56:48.240Z,97452.31
2023-06-19T07:59:16.215Z,97448.53
2023-06-19T08:01:45.083Z,97444.22
2023-06-19T08:04:12.984Z,97445.94
2023-06-19T08:06:40.741Z,97448.28
2023-06-19T08:09:08.602Z,97450.19
2023-06-19T08:11:38.388Z,97449.38
2023-06-19T08:14:06.329Z,97446.63
2023-06-19T08:16:34.210Z,97447.25
2023-06-19T08:19:03.260Z,97449.00
2023-06-19T08:21:31.503Z,97450.22
2023-06-19T08:24:00.187Z,97449.16
2023-06-19T08:26:28.043Z,97440.41
2023-06-19T08:28:56.136Z,97440.75
2023-06-19T08:31:28.310Z,97446.00
2023-06-19T08:33:56.516Z,97439.22
2023-06-19T08:36:25.635Z,97439.13
2023-06-19T08:38:54.007Z,97441.97
2023-06-19T08:41:21.782Z,97453.63
2023-06-19T08:43:49.675Z,97450.53
2023-06-19T08:46:20.906Z,97443.28
2023-06-19T08:48:52.153Z,97452.78
2023-06-19T08:51:20.056Z,97439.31
2023-06-19T08:53:49.181Z,97446.94
2023-06-19T08:56:16.915Z,97442.44
2023-06-19T08:58:44.828Z,97448.22
2023-06-19T09:01:13.533Z,97445.16
2023-06-19T09:03:41.417Z,97443.47
2023-06-19T09:06:09.948Z,97437.88
2023-06-19T09:08:38.898Z,97449.66
2023-06-19T09:11:09.112Z,97442.91
2023-06-19T09:13:38.558Z,97442.97
2023-06-19T09:16:08.068Z,97436.34
2023-06-19T09:18:46.128Z,97429.94
2023-06-19T09:21:19.494Z,97432.69
2023-06-19T09:23:47.772Z,97436.59
2023-06-19T09:26:17.766Z,97430.81
2023-06-19T09:28:45.780Z,97428.78
2023-06-19T09:31:13.771Z,97439.44
2023-06-19T09:33:41.734Z,97438.28
2023-06-19T09:36:09.549Z,97437.97
2023-06-19T09:38:39.446Z,97431.94
2023-06-19T09:41:09.851Z,97429.81
2023-06-19T09:43:44.279Z,97437.13
2023-06-19T09:46:13.456Z,97450.72
2023-06-19T09:48:46.025Z,97442.78
2023-06-19T09:51:20.807Z,97438.47
2023-06-19T09:53:52.986Z,97430.00
2023-06-19T09:56:23.303Z,97437.19
2023-06-19T09:58:52.110Z,97443.28
2023-06-19T10:01:20.325Z,97433.75
2023-06-19T10:03:48.184Z,97431.19
2023-06-19T10:06:17.160Z,97432.91
2023-06-19T10:08:45.783Z,97431.50
2023-06-19T10:11:13.763Z,97432.41
2023-06-19T10:13:42.103Z,97421.00
2023-06-19T10:16:23.848Z,97420.13
2023-06-19T10:18:51.740Z,97421.56
2023-06-19T10:21:20.373Z,97424.00
2023-06-19T10:23:56.129Z,97418.84
2023-06-19T10:26:36.343Z,97424.09
2023-06-19T10:29:15.290Z,97417.03
2023-06-19T10:31:44.082Z,97421.53
2023-06-19T10:34:13.046Z,97413.16
2023-06-19T10:36:41.096Z,97421.59
2023-06-19T10:39:10.027Z,97413.66
2023-06-19T10:41:40.893Z,97402.00
2023-06-19T10:44:14.532Z,97409.97
2023-06-19T10:46:42.520Z,97415.00
2023-06-19T10:49:12.436Z,97405.78
2023-06-19T10:51:41.346Z,97409.66
2023-06-19T10:54:09.206Z,97406.19
2023-06-19T10:56:37.172Z,97416.31
2023-06-19T10:59:10.412Z,97411.53
2023-06-19T11:01:39.653Z,97400.13
2023-06-19T11:04:08.225Z,97402.78
2023-06-19T11:06:37.460Z,97398.97
2023-06-19T11:09:06.302Z,97399.88
2023-06-19T11:11:41.030Z,97408.19
2023-06-19T11:14:09.437Z,97391.38
2023-06-19T11:16:42.598Z,97393.06
2023-06-19T11:19:14.525Z,97389.16
2023-06-19T11:21:50.034Z,97399.59
2023-06-19T11:24:18.161Z,97389.50
2023-06-19T11:26:53.399Z,97390.69
2023-06-19T11:29:23.044Z,97388.16
2023-06-19T11:31:51.599Z,97380.19
2023-06-19T11:34:23.388Z,97390.19
2023-06-19T11:36:52.197Z,97384.78
2023-06-19T11:39:21.094Z,97382.59
2023-06-19T11:41:49.241Z,97369.69
2023-06-19T11:44:17.097Z,97387.19
2023-06-19T11:46:45.045Z,97386.91
2023-06-19T11:49:13.357Z,97378.19
2023-06-19T11:51:42.029Z,97379.00
2023-06-19T11:54:10.609Z,97387.00
2023-06-19T11:56:39.335Z,97384.22
2023-06-19T11:59:07.127Z,97388.22
2023-06-19T12:01:35.550Z,97374.03
2023-06-19T12:04:03.699Z,97371.28
2023-06-19T12:06:32.044Z,97369.75
2023-06-19T12:09:00.285Z,97364.72
2023-06-19T12:11:28.067Z,97362.00
2023-06-19T12:13:57.173Z,97372.53
2023-06-19T12:16:25.034Z,97370.50
2023-06-19T12:18:53.921Z,97363.94
2023-06-19T12:21:34.108Z,97369.41
2023-06-19T12:24:04.244Z,97370.44
2023-06-19T12:26:32.245Z,97360.34
2023-06-19T12:29:00.048Z,97369.25
2023-06-19T12:31:27.901Z,97365.00
2023-06-19T12:33:56.972Z,97368.53
2023-06-19T12:36:26.308Z,97368.44
2023-06-19T12:38:54.921Z,97375.50
2023-06-19T12:41:22.705Z,97358.97
2023-06-19T12:43:50.475Z,97358.06
2023-06-19T12:46:18.338Z,97365.56
2023-06-19T12:48:51.376Z,97358.63
2023-06-19T12:51:19.420Z,97362.47
2023-06-19T12:53:47.258Z,97359.94
2023-06-19T12:56:15.041Z,97359.28
2023-06-19T12:58:42.929Z,97356.53
2023-06-19T13:01:10.757Z,97349.69
2023-06-19T13:03:38.696Z,97352.22
2023-06-19T13:06:06.672Z,97349.09
2023-06-19T13:08:34.410Z,97345.78
2023-06-19T13:11:02.257Z,97349.56
2023-06-19T13:13:30.072Z,97347.41
2023-06-19T13:15:57.952Z,97336.50
2023-06-19T13:18:25.781Z,97348.81
2023-06-19T13:20:53.624Z,97348.81
2023-06-19T13:23:21.349Z,97345.13
2023-06-19T13:25:49.187Z,97349.16
2023-06-19T13:28:17.240Z,97345.84
2023-06-19T13:30:45.106Z,97343.53
2023-06-19T13:33:13.263Z,97341.25
2023-06-19T13:35:41.120Z,97336.50
2023-06-19T13:38:09.133Z,97337.56
2023-06-19T13:40:36.961Z,97337.16
2023-06-19T13:43:07.262Z,97328.69
2023-06-19T13:45:35.800Z,97323.22
2023-06-19T13:48:03.658Z,97334.72
2023-06-19T13:50:31.522Z,97337.19
2023-06-19T13:52:59.507Z,97337.75
2023-06-19T13:55:27.395Z,97328.56
2023-06-19T13:57:55.160Z,97337.25
2023-06-19T14:00:23.211Z,97331.38
2023-06-19T14:02:51.415Z,97326.09
2023-06-19T14:05:19.451Z,97332.63
2023-06-19T14:07:47.283Z,97327.72
2023-06-19T14:10:15.165Z,97332.06
2023-06-19T14:12:42.929Z,97332.84
2023-06-19T14:15:10.914Z,97325.25
2023-06-19T14:17:38.758Z,97328.78
2023-06-19T14:20:07.282Z,97324.97
2023-06-19T14:22:35.904Z,97329.63
2023-06-19T14:25:03.704Z,97319.69
2023-06-19T14:27:31.729Z,97324.19
2023-06-19T14:29:59.542Z,97318.38
2023-06-19T14:32:27.390Z,97326.91
2023-06-19T14:34:55.209Z,97320.53
2023-06-19T14:37:23.120Z,97317.25
2023-06-19T14:39:50.890Z,97316.69
2023-06-19T14:42:18.705Z,97320.13
2023-06-19T14:44:46.671Z,97314.59
2023-06-19T14:47:14.544Z,97312.19
2023-06-19T14:49:42.328Z,97312.28
2023-06-19T14:52:10.142Z,97304.34
2023-06-19T14:54:38.758Z,97310.47
2023-06-19T14:57:06.896Z,97302.69
2023-06-19T14:59:34.661Z,97307.44
2023-06-19T15:02:03.925Z,97306.34
2023-06-19T15:04:32.031Z,97298.78
2023-06-19T15:06:59.953Z,97301.84
2023-06-19T15:09:27.983Z,97291.34
2023-06-19T15:11:55.870Z,97288.97
2023-06-19T15:14:23.634Z,97295.91
2023-06-19T15:16:51.469Z,97295.47
2023-06-19T15:19:19.302Z,97299.88
2023-06-19T15:21:47.116Z,97302.59
2023-06-19T15:24:15.065Z,97299.59
2023-06-19T15:26:42.867Z,97306.91
2023-06-19T15:29:11.506Z,97296.25
2023-06-19T15:31:39.388Z,97293.47
2023-06-19T15:34:07.188Z,97293.69
2023-06-19T15:36:35.858Z,97297.50
2023-06-19T15:39:03.678Z,97295.78
2023-06-19T15:41:31.496Z,97296.84
2023-06-19T15:43:59.316Z,97293.81
2023-06-19T15:46:27.150Z,97293.75
2023-06-19T15:48:55.688Z,97290.31
2023-06-19T15:51:23.873Z,97286.50
2023-06-19T15:53:51.662Z,97295.94
2023-06-19T15:56:19.429Z,97295.47
2023-06-19T15:58:47.146Z,97298.09
2023-06-19T16:01:15.041Z,97297.84
2023-06-19T16:03:42.879Z,97296.72
2023-06-19T16:06:10.707Z,97291.63
2023-06-19T16:08:38.412Z,97297.19
2023-06-19T16:11:06.520Z,97289.84
2023-06-19T16:13:34.460Z,97299.00
2023-06-19T16:16:02.336Z,97292.06
2023-06-19T16:18:30.178Z,97301.19
2023-06-19T16:20:58.061Z,97297.31
2023-06-19T16:23:25.918Z,97297.63
2023-06-19T16:25:53.727Z,97299.03
2023-06-19T16:28:21.582Z,97302.41
2023-06-19T16:30:49.630Z,97304.69
2023-06-19T16:33:18.083Z,97299.50
2023-06-19T16:35:45.918Z,97288.78
2023-06-19T16:38:13.654Z,97299.69
2023-06-19T16:40:41.546Z,97294.91
2023-06-19T16:43:10.896Z,97300.97
2023-06-19T16:45:38.751Z,97298.50
2023-06-19T16:48:06.528Z,97304.31
2023-06-19T16:50:36.274Z,97296.97
2023-06-19T16:53:04.299Z,97304.84
2023-06-19T16:55:32.156Z,97305.50
2023-06-19T16:57:59.897Z,97305.88
2023-06-19T17:00:27.670Z,97307.19
2023-06-19T17:02:57.914Z,97310.66
2023-06-19T17:05:27.731Z,97300.81
2023-06-19T17:07:55.742Z,97317.03
2023-06-19T17:10:24.268Z,97310.13
2023-06-19T17:12:52.403Z,97311.44
2023-06-19T17:15:20.211Z,97317.44
2023-06-19T17:17:48.084Z,97320.13
2023-06-19T17:20:15.876Z,97318.88
2023-06-19T17:22:43.721Z,97324.91
2023-06-19T17:25:11.532Z,97333.00
2023-06-19T17:27:39.364Z,97318.06
2023-06-19T17:30:07.704Z,97329.34
2023-06-19T17:32:35.613Z,97334.97
2023-06-19T17:35:05.674Z,97336.59
2023-06-19T17:37:33.467Z,97336.69
2023-06-19T17:40:01.768Z,97331.41
2023-06-19T17:42:29.656Z,97337.31
2023-06-19T17:44:57.547Z,97339.94
2023-06-19T17:47:25.442Z,97341.97
2023-06-19T17:49:53.596Z,97343.03
2023-06-19T17:52:21.371Z,97347.34
2023-06-19T17:54:54.325Z,97359.50
2023-06-19T17:57:22.295Z,97361.03
2023-06-19T17:59:50.153Z,97355.06
2023-06-19T18:02:19.474Z,97358.91
2023-06-19T18:04:47.467Z,97363.22
2023-06-19T18:07:16.670Z,97359.69
2023-06-19T18:09:48.011Z,97361.16
2023-06-19T18:12:16.188Z,97366.63
2023-06-19T18:14:45.002Z,97376.34
2023-06-19T18:17:13.098Z,97379.13
2023-06-19T18:19:41.753Z,97380.09
2023-06-19T18:22:09.633Z,97390.28
2023-06-19T18:24:37.490Z,97386.31
2023-06-19T18:27:07.544Z,97391.47
2023-06-19T18:29:35.627Z,97401.41
2023-06-19T18:32:03.550Z,97403.63
2023-06-19T18:34:31.394Z,97403.25
2023-06-19T18:36:59.227Z,97399.16
2023-06-19T18:39:27.045Z,97404.63
2023-06-19T18:41:55.883Z,97416.91
2023-06-19T18:44:23.662Z,97417.88
2023-06-19T18:46:51.423Z,97417.88
2023-06-19T18:49:19.203Z,97431.59
2023-06-19T18:51:47.035Z,97430.94
2023-06-19T18:54:14.827Z,97427.28
2023-06-19T18:56:42.681Z,97422.34
2023-06-19T18:59:10.444Z,97423.53
2023-06-19T19:01:38.287Z,97426.44
2023-06-19T19:04:06.086Z,97419.91
2023-06-19T19:06:33.830Z,97428.97
2023-06-19T19:09:01.563Z,97425.94
2023-06-19T19:11:29.404Z,97425.38
2023-06-19T19:13:57.113Z,97430.22
2023-06-19T19:16:26.069Z,97440.34
2023-06-19T19:18:53.894Z,97436.56
2023-06-19T19:21:21.743Z,97436.56
2023-06-19T19:23:49.522Z,97439.91
2023-06-19T19:26:17.303Z,97438.34
2023-06-19T19:28:45.126Z,97441.94
2023-06-19T19:31:13.000Z,97443.34
2023-06-19T19:33:40.834Z,97436.56
2023-06-19T19:36:08.857Z,97436.56
2023-06-19T19:38:36.679Z,97438.66
2023-06-19T19:41:04.541Z,97438.47
2023-06-19T19:43:32.607Z,97443.28
2023-06-19T19:46:00.526Z,97435.56
2023-06-19T19:48:28.312Z,97439.03
2023-06-19T19:50:57.241Z,97446.81
2023-06-19T19:53:25.050Z,97442.13
2023-06-19T19:55:52.830Z,97436.75
2023-06-19T19:58:20.714Z,97443.25
2023-06-19T20:00:50.681Z,97440.81
2023-06-19T20:03:18.764Z,97439.69
2023-06-19T20:05:46.558Z,97432.69
2023-06-19T20:08:14.420Z,97437.81
2023-06-19T20:10:44.480Z,97436.25
2023-06-19T20:13:12.921Z,97441.25
2023-06-19T20:15:40.762Z,97444.50
2023-06-19T20:18:08.604Z,97443.03
2023-06-19T20:20:36.658Z,97444.13
2023-06-19T20:23:04.524Z,97447.22
2023-06-19T20:25:32.300Z,97453.06
2023-06-19T20:28:08.065Z,97456.88
2023-06-19T20:30:36.641Z,97454.84
2023-06-19T20:33:04.628Z,97459.38
2023-06-19T20:35:32.430Z,97457.56
2023-06-19T20:38:00.429Z,97467.50
2023-06-19T20:40:28.813Z,97466.63
2023-06-19T20:42:56.746Z,97470.31
2023-06-19T20:45:27.187Z,97471.91
2023-06-19T20:47:55.348Z,97467.13
2023-06-19T20:50:23.823Z,97474.59
2023-06-19T20:52:52.000Z,97473.53
2023-06-19T20:55:19.766Z,97469.44
2023-06-19T20:57:47.597Z,97467.84
2023-06-19T21:00:15.459Z,97465.81
2023-06-19T21:02:43.345Z,97473.00
2023-06-19T21:05:16.657Z,97463.06
2023-06-19T21:07:45.387Z,97463.69
2023-06-19T21:10:13.277Z,97465.59
2023-06-19T21:12:41.407Z,97466.47
2023-06-19T21:15:09.742Z,97474.03
2023-06-19T21:17:39.820Z,97472.72
2023-06-19T21:20:10.436Z,97473.00
2023-06-19T21:22:39.013Z,97475.16
2023-06-19T21:25:07.357Z,97478.06
2023-06-19T21:27:35.210Z,97477.94
2023-06-19T21:30:03.472Z,97477.31
2023-06-19T21:32:31.381Z,97471.81
2023-06-19T21:34:59.295Z,97480.09
2023-06-19T21:37:27.103Z,97474.91
2023-06-19T21:39:54.823Z,97472.56
2023-06-19T21:42:22.620Z,97476.69
2023-06-19T21:44:50.401Z,97483.72
2023-06-19T21:47:18.182Z,97490.28
2023-06-19T21:49:46.056Z,97487.22
2023-06-19T21:52:13.859Z,97480.91
2023-06-19T21:54:41.595Z,97473.44
2023-06-19T21:57:10.132Z,97488.84
2023-06-19T21:59:37.881Z,97489.81
2023-06-19T22:02:05.997Z,97484.06
2023-06-19T22:04:33.772Z,97475.44
2023-06-19T22:07:01.495Z,97483.91
2023-06-19T22:09:30.297Z,97482.13
2023-06-19T22:11:58.128Z,97484.69
2023-06-19T22:14:25.930Z,97479.53
2023-06-19T22:16:53.703Z,97477.41
2023-06-19T22:19:21.440Z,97483.66
2023-06-19T22:21:49.256Z,97481.09
2023-06-19T22:24:17.034Z,97484.50
2023-06-19T22:26:44.861Z,97478.75
2023-06-19T22:29:14.337Z,97486.81
2023-06-19T22:31:42.232Z,97479.00
2023-06-19T22:34:09.959Z,97481.59
2023-06-19T22:36:37.718Z,97482.91
2023-06-19T22:39:05.571Z,97486.06
2023-06-19T22:41:33.773Z,97483.44
2023-06-19T22:44:03.461Z,97489.94
2023-06-19T22:46:31.297Z,97485.78
2023-06-19T22:48:59.153Z,97486.47
2023-06-19T22:51:26.898Z,97483.63
2023-06-19T22:53:55.016Z,97489.97
2023-06-19T22:56:22.757Z,97495.19
2023-06-19T22:58:50.523Z,97483.44
2023-06-19T23:01:26.248Z,97482.88
2023-06-19T23:03:54.172Z,97479.78
2023-06-19T23:06:21.980Z,97487.56
2023-06-19T23:08:50.454Z,97478.47
2023-06-19T23:11:18.245Z,97476.38
2023-06-19T23:13:46.086Z,97491.00
2023-06-19T23:16:13.903Z,97484.22
2023-06-19T23:18:41.705Z,97484.16
2023-06-19T23:21:09.504Z,97491.03
2023-06-19T23:23:39.047Z,97482.03
2023-06-19T23:26:07.186Z,97475.56
2023-06-19T23:28:34.917Z,97473.16
2023-06-19T23:31:02.610Z,97473.59
2023-06-19T23:33:30.336Z,97468.38
2023-06-19T23:35:58.079Z,97485.66
2023-06-19T23:38:26.185Z,97472.03
2023-06-19T23:40:55.089Z,97471.31
2023-06-19T23:43:22.908Z,97468.63
2023-06-19T23:45:52.286Z,97466.75
2023-06-19T23:48:20.532Z,97472.84
2023-06-19T23:50:48.262Z,97465.78
2023-06-19T23:53:16.072Z,97469.97
2023-06-19T23:55:43.870Z,97460.09
2023-06-19T23:58:11.932Z,97462.13
